Time;durP1;ratioP1;P1;durP2;ratioP2;P2;SDS_P1;SDS_P2;PMS_P1;PMS_P2;Temp;Humidity;BMP_temperature;BMP_pressure;BME280_temperature;BME280_humidity;BME280_pressure;Samples;Min_cycle;Max_cycle;Signal;HPM_P1;HPM_P2
2022/03/04 00:00:49;;;;;;;26.98;13.90;;;;;;;;;;5054044;28;20048;-63
2022/03/04 00:03:15;;;;;;;20.73;12.10;;;;;;;;;;5035263;28;20079;-63
2022/03/04 00:05:41;;;;;;;24.55;13.00;;;;;;;;;;5036309;28;20481;-63
2022/03/04 00:08:07;;;;;;;26.63;13.57;;;;;;;;;;5054228;28;20041;-63
2022/03/04 00:10:33;;;;;;;26.23;14.82;;;;;;;;;;5068638;28;20048;-63
2022/03/04 00:13:00;;;;;;;25.13;12.77;;;;;;;;;;5054052;28;20400;-63
2022/03/04 00:15:26;;;;;;;22.90;12.43;;;;;;;;;;5053883;28;20052;-63
2022/03/04 00:17:52;;;;;;;24.38;12.95;;;;;;;;;;5068254;28;20043;-63
2022/03/04 00:20:18;;;;;;;23.85;12.02;;;;;;;;;;5036217;28;20048;-63
2022/03/04 00:22:44;;;;;;;23.50;13.00;;;;;;;;;;5053270;28;20052;-63
2022/03/04 00:25:11;;;;;;;21.90;11.80;;;;;;;;;;5069203;28;20068;-63
2022/03/04 00:27:37;;;;;;;25.92;11.73;;;;;;;;;;5035874;28;20044;-63
2022/03/04 00:30:04;;;;;;;23.00;11.25;;;;;;;;;;5052848;28;20064;-63
2022/03/04 00:32:30;;;;;;;24.83;12.10;;;;;;;;;;5053566;28;20041;-63
2022/03/04 00:34:56;;;;;;;23.52;12.32;;;;;;;;;;5053343;28;20063;-63
2022/03/04 00:37:22;;;;;;;23.45;10.70;;;;;;;;;;5035111;28;20059;-63
2022/03/04 00:39:48;;;;;;;22.60;11.48;;;;;;;;;;5053433;28;20496;-63
2022/03/04 00:42:14;;;;;;;20.98;11.45;;;;;;;;;;5053318;28;20137;-63
2022/03/04 00:44:41;;;;;;;20.60;11.32;;;;;;;;;;5052576;28;20059;-63
2022/03/04 00:47:07;;;;;;;23.52;12.10;;;;;;;;;;5053268;28;20044;-63
2022/03/04 00:49:34;;;;;;;22.88;12.63;;;;;;;;;;5053015;28;20041;-63
2022/03/04 00:52:00;;;;;;;24.83;12.07;;;;;;;;;;5035003;28;20152;-63
2022/03/04 00:54:27;;;;;;;23.05;11.63;;;;;;;;;;5035240;28;20402;-63
2022/03/04 00:56:53;;;;;;;21.67;11.73;;;;;;;;;;5035010;28;20183;-63
2022/03/04 00:59:19;;;;;;;23.15;11.85;;;;;;;;;;5052248;28;20452;-63
2022/03/04 01:01:45;;;;;;;21.13;11.10;;;;;;;;;;5052854;28;20126;-63
2022/03/04 01:04:11;;;;;;;22.15;11.15;;;;;;;;;;5053150;28;20374;-63
2022/03/04 01:06:38;;;;;;;20.70;11.20;;;;;;;;;;5067510;28;20067;-63
2022/03/04 01:09:05;;;;;;;20.60;11.43;;;;;;;;;;5034911;28;20052;-63
2022/03/04 01:11:32;;;;;;;20.13;10.73;;;;;;;;;;5053186;28;20386;-63
2022/03/04 01:13:58;;;;;;;23.27;11.25;;;;;;;;;;5067631;28;20128;-63
2022/03/04 01:16:24;;;;;;;20.35;10.13;;;;;;;;;;5052603;28;20099;-63
2022/03/04 01:18:50;;;;;;;22.45;11.57;;;;;;;;;;5052553;28;20469;-63
2022/03/04 01:21:17;;;;;;;26.23;11.73;;;;;;;;;;5052677;28;20476;-63
2022/03/04 01:23:43;;;;;;;21.45;10.63;;;;;;;;;;5052754;28;20389;-63
2022/03/04 01:26:09;;;;;;;20.27;11.18;;;;;;;;;;5067060;28;20477;-63
2022/03/04 01:28:36;;;;;;;22.67;11.52;;;;;;;;;;5052684;28;20121;-63
2022/03/04 01:31:02;;;;;;;22.25;11.13;;;;;;;;;;5034766;28;20033;-63
2022/03/04 01:33:28;;;;;;;19.83;10.25;;;;;;;;;;5066797;28;20048;-63
2022/03/04 01:35:54;;;;;;;21.60;11.60;;;;;;;;;;5052557;28;20486;-63
2022/03/04 01:38:21;;;;;;;22.85;11.32;;;;;;;;;;5052538;28;20132;-63
2022/03/04 01:40:47;;;;;;;19.08;9.73;;;;;;;;;;5051616;28;20090;-63
2022/03/04 01:43:13;;;;;;;21.90;11.38;;;;;;;;;;5052326;28;20032;-63
2022/03/04 01:45:39;;;;;;;19.48;10.98;;;;;;;;;;5052327;28;20128;-63
2022/03/04 01:48:06;;;;;;;20.95;11.07;;;;;;;;;;5051641;28;20045;-63
2022/03/04 01:50:32;;;;;;;22.88;11.57;;;;;;;;;;5052195;28;20095;-63
2022/03/04 01:52:59;;;;;;;25.77;11.35;;;;;;;;;;5052166;28;20040;-63
2022/03/04 01:55:25;;;;;;;23.30;11.43;;;;;;;;;;5033421;28;20078;-63
2022/03/04 01:57:51;;;;;;;19.38;10.13;;;;;;;;;;5067252;28;20059;-63
2022/03/04 02:00:17;;;;;;;22.38;10.93;;;;;;;;;;5050458;28;20131;-63
2022/03/04 02:02:45;;;;;;;23.90;10.55;;;;;;;;;;5051353;28;20037;-63
2022/03/04 02:05:15;;;;;;;19.50;9.70;;;;;;;;;;5051933;28;20052;-63
2022/03/04 02:07:41;;;;;;;20.23;10.80;;;;;;;;;;5067114;28;20045;-63
2022/03/04 02:10:09;;;;;;;19.27;10.60;;;;;;;;;;5033564;28;20362;-63
2022/03/04 02:12:35;;;;;;;22.25;11.30;;;;;;;;;;5051900;28;20071;-63
2022/03/04 02:15:02;;;;;;;28.80;11.32;;;;;;;;;;5033947;28;20060;-63
2022/03/04 02:17:28;;;;;;;19.30;11.45;;;;;;;;;;5050004;28;20040;-63
2022/03/04 02:19:55;;;;;;;21.17;11.73;;;;;;;;;;5067536;28;20052;-63
2022/03/04 02:22:21;;;;;;;25.45;11.20;;;;;;;;;;5051105;28;20047;-63
2022/03/04 02:24:47;;;;;;;22.92;12.18;;;;;;;;;;5067100;28;20127;-63
2022/03/04 02:27:13;;;;;;;25.17;12.48;;;;;;;;;;5051686;28;20045;-63
2022/03/04 02:29:39;;;;;;;24.83;11.35;;;;;;;;;;5051385;28;20052;-63
2022/03/04 02:32:06;;;;;;;26.30;12.10;;;;;;;;;;5067178;28;20163;-63
2022/03/04 02:34:32;;;;;;;23.23;11.77;;;;;;;;;;5051821;28;20041;-63
2022/03/04 02:36:58;;;;;;;20.98;11.32;;;;;;;;;;5066484;28;20056;-63
2022/03/04 02:39:24;;;;;;;24.52;11.63;;;;;;;;;;5067444;28;20404;-63
2022/03/04 02:41:50;;;;;;;19.55;10.45;;;;;;;;;;5051516;28;20124;-63
2022/03/04 02:44:17;;;;;;;23.42;11.68;;;;;;;;;;5066213;28;20103;-63
2022/03/04 02:46:43;;;;;;;23.23;11.65;;;;;;;;;;5051696;28;20041;-63
2022/03/04 02:49:10;;;;;;;25.02;11.65;;;;;;;;;;5033879;28;20400;-63
2022/03/04 02:51:36;;;;;;;24.05;11.30;;;;;;;;;;5050723;28;20041;-63
2022/03/04 02:54:03;;;;;;;25.70;12.75;;;;;;;;;;5051482;28;20052;-63
2022/03/04 02:56:29;;;;;;;25.20;13.30;;;;;;;;;;5051493;28;20053;-63
2022/03/04 02:58:55;;;;;;;34.25;13.60;;;;;;;;;;5065822;28;20514;-63
2022/03/04 03:01:25;;;;;;;26.88;13.07;;;;;;;;;;5051602;28;20045;-63
2022/03/04 03:03:51;;;;;;;26.80;13.85;;;;;;;;;;5051628;28;20053;-63
2022/03/04 03:06:18;;;;;;;28.27;13.63;;;;;;;;;;5050625;28;20091;-63
2022/03/04 03:08:44;;;;;;;31.80;13.93;;;;;;;;;;5051316;28;20049;-63
2022/03/04 03:11:10;;;;;;;31.40;14.45;;;;;;;;;;5051303;28;20041;-63
2022/03/04 03:13:36;;;;;;;29.02;13.65;;;;;;;;;;5069674;28;20045;-63
2022/03/04 03:16:03;;;;;;;28.77;13.80;;;;;;;;;;5055618;28;20045;-63
2022/03/04 03:18:29;;;;;;;26.15;13.38;;;;;;;;;;5054127;28;20048;-63
2022/03/04 03:20:55;;;;;;;31.00;15.52;;;;;;;;;;5055009;28;20163;-63
2022/03/04 03:23:21;;;;;;;28.48;13.55;;;;;;;;;;5037062;28;20102;-63
2022/03/04 03:25:48;;;;;;;33.33;14.93;;;;;;;;;;5054200;28;20118;-63
2022/03/04 03:28:14;;;;;;;27.95;13.05;;;;;;;;;;5054853;28;20095;-63
2022/03/04 03:30:40;;;;;;;32.17;15.10;;;;;;;;;;5054949;28;20044;-63
2022/03/04 03:33:06;;;;;;;32.85;15.07;;;;;;;;;;5035971;28;20219;-63
2022/03/04 03:35:32;;;;;;;30.10;14.43;;;;;;;;;;5054726;28;20091;-63
2022/03/04 03:37:59;;;;;;;31.42;15.00;;;;;;;;;;5054447;28;20045;-63
2022/03/04 03:40:25;;;;;;;28.98;14.32;;;;;;;;;;5069450;28;20060;-63
2022/03/04 03:42:51;;;;;;;28.02;14.65;;;;;;;;;;5070038;28;20049;-63
2022/03/04 03:45:17;;;;;;;34.42;15.38;;;;;;;;;;5053104;28;20060;-63
2022/03/04 03:47:43;;;;;;;30.50;14.48;;;;;;;;;;5053817;28;20044;-63
2022/03/04 03:50:10;;;;;;;28.15;13.57;;;;;;;;;;5054624;28;20053;-63
2022/03/04 03:52:37;;;;;;;30.83;13.98;;;;;;;;;;5069940;28;20564;-63
2022/03/04 03:55:04;;;;;;;32.17;15.45;;;;;;;;;;5035492;28;20061;-63
2022/03/04 03:57:30;;;;;;;33.13;15.82;;;;;;;;;;5054228;28;20049;-63
2022/03/04 03:59:56;;;;;;;29.42;14.70;;;;;;;;;;5069462;28;20132;-63
2022/03/04 04:02:22;;;;;;;30.02;14.50;;;;;;;;;;5052107;28;20060;-63
2022/03/04 04:04:48;;;;;;;30.30;15.10;;;;;;;;;;5069439;28;20053;-63
2022/03/04 04:07:14;;;;;;;28.73;13.82;;;;;;;;;;5036336;28;20584;-63
2022/03/04 04:09:40;;;;;;;35.60;16.17;;;;;;;;;;5035498;28;20374;-63
2022/03/04 04:12:07;;;;;;;30.60;15.55;;;;;;;;;;5054143;28;20045;-63
2022/03/04 04:14:34;;;;;;;30.23;14.70;;;;;;;;;;5069401;28;20063;-63
2022/03/04 04:17:00;;;;;;;29.10;15.32;;;;;;;;;;5053347;28;20405;-63
2022/03/04 04:19:26;;;;;;;35.80;16.92;;;;;;;;;;5035852;28;20084;-63
2022/03/04 04:21:52;;;;;;;29.88;15.15;;;;;;;;;;5035024;28;20076;-63
2022/03/04 04:24:19;;;;;;;30.10;14.57;;;;;;;;;;5053291;28;20127;-63
2022/03/04 04:26:45;;;;;;;34.13;14.43;;;;;;;;;;5053792;28;20063;-63
2022/03/04 04:29:12;;;;;;;30.58;14.38;;;;;;;;;;5068420;28;20129;-63
2022/03/04 04:31:40;;;;;;;31.77;14.52;;;;;;;;;;5053628;28;20120;-63
2022/03/04 04:34:06;;;;;;;32.72;16.25;;;;;;;;;;5053621;28;20115;-63
2022/03/04 04:36:32;;;;;;;34.50;15.77;;;;;;;;;;5068047;28;20124;-63
2022/03/04 04:38:58;;;;;;;32.17;16.20;;;;;;;;;;5053677;28;20080;-63
2022/03/04 04:41:25;;;;;;;31.92;15.80;;;;;;;;;;5068932;28;20083;-63
2022/03/04 04:43:51;;;;;;;31.60;14.25;;;;;;;;;;5067906;28;20045;-63
2022/03/04 04:46:17;;;;;;;33.95;14.75;;;;;;;;;;5068968;28;20049;-63
2022/03/04 04:48:43;;;;;;;30.85;14.82;;;;;;;;;;5053531;28;20482;-63
2022/03/04 04:51:09;;;;;;;32.78;15.02;;;;;;;;;;5052206;28;20037;-63
2022/03/04 04:53:36;;;;;;;34.42;14.23;;;;;;;;;;5053508;28;20048;-63
2022/03/04 04:56:02;;;;;;;29.48;14.38;;;;;;;;;;5068528;28;20489;-63
2022/03/04 04:58:28;;;;;;;34.95;15.32;;;;;;;;;;5067411;28;20146;-63
2022/03/04 05:00:55;;;;;;;35.58;16.77;;;;;;;;;;5053456;28;20190;-63
2022/03/04 05:03:22;;;;;;;30.10;14.35;;;;;;;;;;5034860;28;20045;-63
2022/03/04 05:05:48;;;;;;;36.75;15.60;;;;;;;;;;5052369;28;20098;-63
2022/03/04 05:08:15;;;;;;;28.08;14.38;;;;;;;;;;5035284;28;20067;-63
2022/03/04 05:10:41;;;;;;;34.97;15.45;;;;;;;;;;5053025;28;20049;-63
2022/03/04 05:13:07;;;;;;;32.58;15.85;;;;;;;;;;5067109;28;20044;-63
2022/03/04 05:15:33;;;;;;;33.17;16.08;;;;;;;;;;5052912;28;20136;-63
2022/03/04 05:17:59;;;;;;;32.10;15.63;;;;;;;;;;5052121;28;20120;-63
2022/03/04 05:20:25;;;;;;;31.30;14.55;;;;;;;;;;5052617;28;20560;-63
2022/03/04 05:22:51;;;;;;;33.15;15.93;;;;;;;;;;5034930;28;20436;-63
2022/03/04 05:25:18;;;;;;;35.38;15.57;;;;;;;;;;5034142;28;20354;-63
2022/03/04 05:27:44;;;;;;;33.15;16.55;;;;;;;;;;5067984;28;20052;-63
2022/03/04 05:30:10;;;;;;;40.83;16.40;;;;;;;;;;5067800;28;20053;-63
2022/03/04 05:32:36;;;;;;;34.33;16.02;;;;;;;;;;5051477;28;20053;-63
2022/03/04 05:35:03;;;;;;;35.35;16.15;;;;;;;;;;5051794;28;20103;-63
2022/03/04 05:37:29;;;;;;;32.63;14.98;;;;;;;;;;5052358;28;20140;-63
2022/03/04 05:39:55;;;;;;;31.67;14.88;;;;;;;;;;5051688;28;20044;-63
2022/03/04 05:42:21;;;;;;;32.05;14.32;;;;;;;;;;5067729;28;20110;-63
2022/03/04 05:44:47;;;;;;;35.38;17.48;;;;;;;;;;5050870;28;20060;-63
2022/03/04 05:47:13;;;;;;;32.40;15.23;;;;;;;;;;5066766;28;20053;-63
2022/03/04 05:49:39;;;;;;;37.42;16.52;;;;;;;;;;5067813;28;20135;-63
2022/03/04 05:52:06;;;;;;;31.38;16.33;;;;;;;;;;5052640;28;20399;-63
2022/03/04 05:54:32;;;;;;;33.38;16.17;;;;;;;;;;5051353;28;20052;-63
2022/03/04 05:56:58;;;;;;;37.45;15.93;;;;;;;;;;5050587;28;20140;-63
2022/03/04 05:59:24;;;;;;;35.88;16.27;;;;;;;;;;5052186;28;20064;-63
2022/03/04 06:01:50;;;;;;;31.63;15.68;;;;;;;;;;5049659;28;20055;-63
2022/03/04 06:04:17;;;;;;;33.47;15.25;;;;;;;;;;5034361;28;20127;-63
2022/03/04 06:06:43;;;;;;;33.50;15.75;;;;;;;;;;5034632;28;20409;-63
2022/03/04 06:09:10;;;;;;;35.55;16.38;;;;;;;;;;5051096;28;20511;-63
2022/03/04 06:11:36;;;;;;;35.42;16.02;;;;;;;;;;5052129;28;20048;-63
2022/03/04 06:14:02;;;;;;;34.25;16.58;;;;;;;;;;5051869;28;20401;-62
2022/03/04 06:16:28;;;;;;;35.10;16.50;;;;;;;;;;5050973;28;20052;-63
2022/03/04 06:18:54;;;;;;;35.58;17.27;;;;;;;;;;5068040;28;20052;-63
2022/03/04 06:21:21;;;;;;;41.10;16.95;;;;;;;;;;5050928;28;20479;-63
2022/03/04 06:23:47;;;;;;;36.38;17.00;;;;;;;;;;5067389;28;20218;-63
2022/03/04 06:26:13;;;;;;;36.72;16.17;;;;;;;;;;5051968;28;20040;-63
2022/03/04 06:28:39;;;;;;;34.75;16.42;;;;;;;;;;5050931;28;20064;-63
2022/03/04 06:31:06;;;;;;;37.05;16.33;;;;;;;;;;5051642;28;20481;-63
2022/03/04 06:33:32;;;;;;;36.10;16.77;;;;;;;;;;5051745;28;20128;-63
2022/03/04 06:36:00;;;;;;;37.80;17.75;;;;;;;;;;5051047;28;20049;-63
2022/03/04 06:38:26;;;;;;;44.78;17.33;;;;;;;;;;5051794;28;20049;-63
2022/03/04 06:40:53;;;;;;;35.60;18.00;;;;;;;;;;5051749;28;20045;-63
2022/03/04 06:43:19;;;;;;;38.67;18.23;;;;;;;;;;5050925;28;20132;-63
2022/03/04 06:45:46;;;;;;;43.35;17.58;;;;;;;;;;5066818;28;20037;-63
2022/03/04 06:48:13;;;;;;;36.35;18.40;;;;;;;;;;5055021;28;20132;-63
2022/03/04 06:50:39;;;;;;;35.83;18.50;;;;;;;;;;5070098;28;20124;-63
2022/03/04 06:53:06;;;;;;;41.05;18.15;;;;;;;;;;5070689;28;20064;-63
2022/03/04 06:55:32;;;;;;;46.75;20.25;;;;;;;;;;5055495;28;20126;-63
2022/03/04 06:57:59;;;;;;;48.55;20.42;;;;;;;;;;5054341;28;20056;-63
2022/03/04 07:00:25;;;;;;;40.67;19.67;;;;;;;;;;5070675;28;20060;-63
2022/03/04 07:02:53;;;;;;;38.97;18.02;;;;;;;;;;5070604;28;20473;-63
2022/03/04 07:05:21;;;;;;;38.95;18.85;;;;;;;;;;5054483;28;20060;-63
2022/03/04 07:07:49;;;;;;;38.88;19.20;;;;;;;;;;5055046;28;20488;-63
2022/03/04 07:10:15;;;;;;;46.42;21.00;;;;;;;;;;5055188;28;20498;-63
2022/03/04 07:12:41;;;;;;;39.85;18.55;;;;;;;;;;5052843;28;20072;-63
2022/03/04 07:15:07;;;;;;;43.25;20.45;;;;;;;;;;5055324;28;20091;-63
2022/03/04 07:17:33;;;;;;;41.72;18.50;;;;;;;;;;5070210;28;20045;-63
2022/03/04 07:20:00;;;;;;;40.05;17.83;;;;;;;;;;5055370;28;20037;-63
2022/03/04 07:22:26;;;;;;;40.72;19.85;;;;;;;;;;5070390;28;20437;-63
2022/03/04 07:24:53;;;;;;;42.75;20.35;;;;;;;;;;5069682;28;20128;-63
2022/03/04 07:27:19;;;;;;;41.78;19.60;;;;;;;;;;5054729;28;20051;-63
2022/03/04 07:29:45;;;;;;;41.88;19.88;;;;;;;;;;5054903;28;20056;-63
2022/03/04 07:32:11;;;;;;;39.92;19.33;;;;;;;;;;5053922;28;20631;-63
2022/03/04 07:34:37;;;;;;;50.58;21.95;;;;;;;;;;5054728;28;20080;-63
2022/03/04 07:37:03;;;;;;;47.83;19.30;;;;;;;;;;5054612;28;20099;-63
2022/03/04 07:39:30;;;;;;;41.33;20.50;;;;;;;;;;5053827;28;20045;-63
2022/03/04 07:41:56;;;;;;;45.78;19.77;;;;;;;;;;5036667;28;20052;-63
2022/03/04 07:44:22;;;;;;;39.75;18.83;;;;;;;;;;5069905;28;20553;-63
2022/03/04 07:46:48;;;;;;;42.20;19.60;;;;;;;;;;5069115;28;20102;-63
2022/03/04 07:49:14;;;;;;;48.38;20.17;;;;;;;;;;5069697;28;20064;-63
2022/03/04 07:51:40;;;;;;;40.33;19.63;;;;;;;;;;5054423;28;20049;-63
2022/03/04 07:54:06;;;;;;;48.05;21.65;;;;;;;;;;5035651;28;20103;-63
2022/03/04 07:56:33;;;;;;;48.92;20.80;;;;;;;;;;5054063;28;20041;-63
2022/03/04 07:58:59;;;;;;;44.65;19.58;;;;;;;;;;5053316;28;20095;-63
2022/03/04 08:01:25;;;;;;;50.25;20.63;;;;;;;;;;5068778;28;20056;-63
2022/03/04 08:03:52;;;;;;;49.33;21.80;;;;;;;;;;5069887;28;20486;-63
2022/03/04 08:06:18;;;;;;;46.45;20.88;;;;;;;;;;5069487;28;20041;-63
2022/03/04 08:08:44;;;;;;;40.90;19.17;;;;;;;;;;5053186;28;20232;-63
2022/03/04 08:11:10;;;;;;;41.85;22.27;;;;;;;;;;5054076;28;20470;-63
2022/03/04 08:13:36;;;;;;;41.97;20.38;;;;;;;;;;5054088;28;20045;-63
2022/03/04 08:16:03;;;;;;;44.13;21.17;;;;;;;;;;5053366;28;20067;-63
2022/03/04 08:18:29;;;;;;;45.63;21.73;;;;;;;;;;5053744;28;20480;-63
2022/03/04 08:20:55;;;;;;;47.03;21.40;;;;;;;;;;5053048;28;20102;-63
2022/03/04 08:23:21;;;;;;;39.83;21.45;;;;;;;;;;5053884;28;20052;-63
2022/03/04 08:25:49;;;;;;;51.05;22.27;;;;;;;;;;5069013;28;20051;-63
2022/03/04 08:28:15;;;;;;;50.42;22.77;;;;;;;;;;5035006;28;20056;-63
2022/03/04 08:30:42;;;;;;;46.38;21.83;;;;;;;;;;5053647;28;20033;-63
2022/03/04 08:33:08;;;;;;;40.45;20.85;;;;;;;;;;5054031;28;20354;-63
2022/03/04 08:35:34;;;;;;;41.92;22.10;;;;;;;;;;5052814;28;20084;-63
2022/03/04 08:38:02;;;;;;;49.60;23.08;;;;;;;;;;5053512;28;20037;-63
2022/03/04 08:40:28;;;;;;;41.15;20.73;;;;;;;;;;5035466;28;20052;-63
2022/03/04 08:42:54;;;;;;;50.53;22.55;;;;;;;;;;5052872;28;20374;-63
2022/03/04 08:45:20;;;;;;;45.50;21.90;;;;;;;;;;5053516;28;20045;-63
2022/03/04 08:47:47;;;;;;;44.90;21.92;;;;;;;;;;5053395;28;20047;-63
2022/03/04 08:50:14;;;;;;;45.60;21.48;;;;;;;;;;5052450;28;20052;-63
2022/03/04 08:52:40;;;;;;;48.40;22.35;;;;;;;;;;5053140;28;20417;-63
2022/03/04 08:55:13;;;;;;;43.17;22.90;;;;;;;;;;5035355;28;20045;-63
2022/03/04 08:57:40;;;;;;;44.13;21.35;;;;;;;;;;5052261;28;20057;-63
2022/03/04 09:00:06;;;;;;;48.13;23.15;;;;;;;;;;5053105;28;20059;-63
2022/03/04 09:02:33;;;;;;;52.72;25.52;;;;;;;;;;5053229;28;20461;-63
2022/03/04 09:04:59;;;;;;;47.05;24.42;;;;;;;;;;5052259;28;20126;-63
2022/03/04 09:07:26;;;;;;;46.75;23.83;;;;;;;;;;5052917;28;20469;-63
2022/03/04 09:09:52;;;;;;;43.58;21.80;;;;;;;;;;5052792;28;20053;-63
2022/03/04 09:12:19;;;;;;;44.17;22.73;;;;;;;;;;5051932;28;20091;-63
2022/03/04 09:14:45;;;;;;;36.38;20.73;;;;;;;;;;5052782;28;20072;-63
2022/03/04 09:17:12;;;;;;;42.60;23.30;;;;;;;;;;5052102;28;20040;-63
2022/03/04 09:19:39;;;;;;;44.50;23.13;;;;;;;;;;5035318;28;20053;-63
2022/03/04 09:22:05;;;;;;;40.75;21.83;;;;;;;;;;5034797;28;20388;-63
2022/03/04 09:24:31;;;;;;;45.47;21.80;;;;;;;;;;5052098;28;20098;-64
2022/03/04 09:26:57;;;;;;;44.08;21.88;;;;;;;;;;5052700;28;20458;-64
2022/03/04 09:29:24;;;;;;;41.95;21.80;;;;;;;;;;5052953;28;20428;-64
2022/03/04 09:31:50;;;;;;;44.35;21.25;;;;;;;;;;5034127;28;20407;-63
2022/03/04 09:34:16;;;;;;;43.55;21.92;;;;;;;;;;5067957;28;20045;-63
2022/03/04 09:36:42;;;;;;;43.85;23.35;;;;;;;;;;5067918;28;20460;-63
2022/03/04 09:39:09;;;;;;;42.80;22.48;;;;;;;;;;5051842;28;20040;-63
2022/03/04 09:41:35;;;;;;;40.33;22.52;;;;;;;;;;5067949;28;20064;-63
2022/03/04 09:44:03;;;;;;;43.00;23.10;;;;;;;;;;5052416;28;20041;-63
2022/03/04 09:46:30;;;;;;;44.65;25.85;;;;;;;;;;5051607;28;20404;-63
2022/03/04 09:48:56;;;;;;;43.78;24.05;;;;;;;;;;5051092;28;20116;-63
2022/03/04 09:51:22;;;;;;;39.63;23.10;;;;;;;;;;5052419;28;20033;-63
2022/03/04 09:53:51;;;;;;;43.40;23.35;;;;;;;;;;5051576;28;20100;-63
2022/03/04 09:56:19;;;;;;;38.65;21.08;;;;;;;;;;5052429;28;20059;-63
2022/03/04 09:58:45;;;;;;;36.17;21.88;;;;;;;;;;5048706;28;20136;-63
2022/03/04 10:01:12;;;;;;;37.33;21.60;;;;;;;;;;5031776;28;20049;-63
2022/03/04 10:03:39;;;;;;;33.78;20.27;;;;;;;;;;5014451;28;20111;-63
2022/03/04 10:06:06;;;;;;;39.85;23.65;;;;;;;;;;5014706;28;20041;-63
2022/03/04 10:08:37;;;;;;;41.85;23.02;;;;;;;;;;5030075;28;20041;-63
2022/03/04 10:11:03;;;;;;;43.67;23.23;;;;;;;;;;5031896;28;20559;-63
2022/03/04 10:13:40;;;;;;;36.80;22.02;;;;;;;;;;5013840;28;20057;-64
2022/03/04 10:16:06;;;;;;;39.67;22.40;;;;;;;;;;5031989;28;20050;-63
2022/03/04 10:18:33;;;;;;;34.17;19.98;;;;;;;;;;5032130;28;20053;-64
2022/03/04 10:20:59;;;;;;;37.35;22.65;;;;;;;;;;5031986;28;20073;-64
2022/03/04 10:23:26;;;;;;;37.50;20.45;;;;;;;;;;5038320;28;20096;-64
2022/03/04 10:25:53;;;;;;;34.47;20.40;;;;;;;;;;5038953;28;20110;-64
2022/03/04 10:28:23;;;;;;;33.58;19.00;;;;;;;;;;5037758;28;20084;-64
2022/03/04 10:30:50;;;;;;;32.65;20.02;;;;;;;;;;5038657;28;20506;-63
2022/03/04 10:33:18;;;;;;;35.92;21.23;;;;;;;;;;5053809;28;20041;-64
2022/03/04 10:35:45;;;;;;;39.47;22.13;;;;;;;;;;5037816;28;20403;-64
2022/03/04 10:38:17;;;;;;;42.85;25.52;;;;;;;;;;5038482;28;20128;-63
2022/03/04 10:40:44;;;;;;;42.42;26.85;;;;;;;;;;5053608;28;20079;-64
2022/03/04 10:43:11;;;;;;;43.45;24.73;;;;;;;;;;5019683;28;20077;-63
2022/03/04 10:45:40;;;;;;;37.28;22.38;;;;;;;;;;5038475;28;20045;-63
2022/03/04 10:48:14;;;;;;;39.33;22.23;;;;;;;;;;5038362;28;20159;-63
2022/03/04 10:50:40;;;;;;;39.92;22.45;;;;;;;;;;5028394;28;20524;-63
2022/03/04 10:53:07;;;;;;;38.15;22.65;;;;;;;;;;5053509;28;20048;-64
2022/03/04 10:55:35;;;;;;;34.95;21.90;;;;;;;;;;5037942;28;20085;-63
2022/03/04 10:58:03;;;;;;;37.40;21.67;;;;;;;;;;5048168;28;20128;-63
2022/03/04 11:00:30;;;;;;;35.35;21.50;;;;;;;;;;5058311;28;20196;-63
2022/03/04 11:02:56;;;;;;;32.65;20.58;;;;;;;;;;5057354;28;20598;-63
2022/03/04 11:05:23;;;;;;;34.50;21.70;;;;;;;;;;5040285;28;20451;-63
2022/03/04 11:07:50;;;;;;;30.42;19.52;;;;;;;;;;5058194;28;20090;-63
2022/03/04 11:10:16;;;;;;;27.58;17.85;;;;;;;;;;5072531;28;20048;-63
2022/03/04 11:12:42;;;;;;;29.60;17.52;;;;;;;;;;5073426;28;20131;-64
2022/03/04 11:15:11;;;;;;;27.05;16.98;;;;;;;;;;5058192;28;20049;-64
2022/03/04 11:17:38;;;;;;;29.25;18.65;;;;;;;;;;5057319;28;20098;-64
2022/03/04 11:20:05;;;;;;;27.25;18.15;;;;;;;;;;5073422;28;20576;-64
2022/03/04 11:22:32;;;;;;;26.77;17.77;;;;;;;;;;5057939;28;20036;-64
2022/03/04 11:25:06;;;;;;;26.67;17.45;;;;;;;;;;5072391;28;20057;-64
2022/03/04 11:27:36;;;;;;;23.52;16.63;;;;;;;;;;5058148;28;20059;-64
2022/03/04 11:30:04;;;;;;;24.40;15.60;;;;;;;;;;5058041;28;20071;-64
2022/03/04 11:32:31;;;;;;;22.83;15.98;;;;;;;;;;5056762;28;20044;-64
2022/03/04 11:34:57;;;;;;;21.10;15.98;;;;;;;;;;5036788;28;20052;-64
2022/03/04 11:37:24;;;;;;;21.70;15.18;;;;;;;;;;5070228;28;20048;-64
2022/03/04 11:40:01;;;;;;;21.92;16.17;;;;;;;;;;5069285;28;20081;-64
2022/03/04 11:42:35;;;;;;;17.60;12.90;;;;;;;;;;5036871;28;20059;-64
2022/03/04 11:45:02;;;;;;;19.92;14.95;;;;;;;;;;5068958;28;20045;-64
2022/03/04 11:47:30;;;;;;;19.17;14.27;;;;;;;;;;5036456;28;20103;-64
2022/03/04 11:49:56;;;;;;;19.73;14.68;;;;;;;;;;5054289;28;20453;-65
2022/03/04 11:52:25;;;;;;;17.65;12.40;;;;;;;;;;5035603;28;20091;-65
2022/03/04 11:54:52;;;;;;;16.00;11.95;;;;;;;;;;5054441;28;20048;-64
2022/03/04 11:57:19;;;;;;;15.00;11.90;;;;;;;;;;5054118;28;20090;-65
2022/03/04 11:59:56;;;;;;;17.48;13.20;;;;;;;;;;5035863;28;20045;-64
2022/03/04 12:02:27;;;;;;;16.15;13.13;;;;;;;;;;5069859;28;20048;-64
2022/03/04 12:05:11;;;;;;;16.58;12.35;;;;;;;;;;5054609;28;20059;-64
2022/03/04 12:07:37;;;;;;;15.80;12.02;;;;;;;;;;5053389;28;20049;-65
2022/03/04 12:10:08;;;;;;;15.65;12.25;;;;;;;;;;5054063;28;20053;-64
2022/03/04 12:12:34;;;;;;;15.23;11.80;;;;;;;;;;5053877;28;20115;-64
2022/03/04 12:15:16;;;;;;;15.13;12.20;;;;;;;;;;5053356;28;20087;-64
2022/03/04 12:17:53;;;;;;;14.93;11.60;;;;;;;;;;5053899;28;20041;-64
2022/03/04 12:20:28;;;;;;;14.88;10.38;;;;;;;;;;5053173;28;20416;-64
2022/03/04 12:22:59;;;;;;;14.32;10.35;;;;;;;;;;5053722;28;20060;-64
2022/03/04 12:25:43;;;;;;;14.18;9.82;;;;;;;;;;5054058;28;20045;-64
2022/03/04 12:28:16;;;;;;;16.33;9.93;;;;;;;;;;5052823;28;20126;-64
2022/03/04 12:30:42;;;;;;;14.35;10.38;;;;;;;;;;5053783;28;20132;-64
2022/03/04 12:33:10;;;;;;;15.57;9.60;;;;;;;;;;5053793;28;20072;-64
2022/03/04 12:35:36;;;;;;;14.57;10.15;;;;;;;;;;5052704;28;20203;-64
2022/03/04 12:38:03;;;;;;;12.50;9.80;;;;;;;;;;5053541;28;20044;-64
2022/03/04 12:40:29;;;;;;;12.45;9.93;;;;;;;;;;5069107;28;20063;-64
2022/03/04 12:42:56;;;;;;;13.70;10.23;;;;;;;;;;5067967;28;20040;-65
2022/03/04 12:45:22;;;;;;;13.57;10.88;;;;;;;;;;5052865;28;20090;-65
2022/03/04 12:47:50;;;;;;;14.20;10.68;;;;;;;;;;5035335;28;20539;-64
2022/03/04 12:50:22;;;;;;;13.05;9.90;;;;;;;;;;5067770;28;20049;-64
2022/03/04 12:52:48;;;;;;;13.77;10.10;;;;;;;;;;5068812;28;20064;-64
2022/03/04 12:55:14;;;;;;;14.68;10.85;;;;;;;;;;5052484;28;20397;-64
2022/03/04 12:57:41;;;;;;;12.70;10.65;;;;;;;;;;5068252;28;20060;-64
2022/03/04 13:00:07;;;;;;;12.30;10.50;;;;;;;;;;5053047;28;20045;-64
2022/03/04 13:02:34;;;;;;;15.73;11.75;;;;;;;;;;5034385;28;20072;-64
2022/03/04 13:05:01;;;;;;;13.80;10.88;;;;;;;;;;5052957;28;20155;-64
2022/03/04 13:07:27;;;;;;;14.90;11.02;;;;;;;;;;5053189;28;20041;-64
2022/03/04 13:09:55;;;;;;;14.73;11.85;;;;;;;;;;5034073;28;20489;-64
2022/03/04 13:12:22;;;;;;;14.82;12.15;;;;;;;;;;5053093;28;20041;-64
2022/03/04 13:14:49;;;;;;;14.20;11.25;;;;;;;;;;5052646;28;20102;-64
2022/03/04 13:17:15;;;;;;;14.23;11.48;;;;;;;;;;5067374;28;20071;-64
2022/03/04 13:19:41;;;;;;;14.35;11.02;;;;;;;;;;5052642;28;20469;-64
2022/03/04 13:22:09;;;;;;;14.07;11.55;;;;;;;;;;5034768;28;20040;-64
2022/03/04 13:24:37;;;;;;;15.77;12.18;;;;;;;;;;5051916;28;20049;-64
2022/03/04 13:27:06;;;;;;;14.80;11.93;;;;;;;;;;5034753;28;20040;-64
2022/03/04 13:29:34;;;;;;;14.52;11.48;;;;;;;;;;5052589;28;20151;-64
2022/03/04 13:32:04;;;;;;;13.02;10.93;;;;;;;;;;5034043;28;20120;-64
2022/03/04 13:34:31;;;;;;;14.18;10.73;;;;;;;;;;5052622;28;20095;-64
2022/03/04 13:37:00;;;;;;;14.45;10.65;;;;;;;;;;5052610;28;20127;-64
2022/03/04 13:39:29;;;;;;;13.43;9.18;;;;;;;;;;5033584;28;20127;-64
2022/03/04 13:42:14;;;;;;;14.13;10.82;;;;;;;;;;5067856;28;20048;-64
2022/03/04 13:44:52;;;;;;;13.00;10.02;;;;;;;;;;5033559;28;20095;-64
2022/03/04 13:47:29;;;;;;;14.80;9.43;;;;;;;;;;5067874;28;20143;-64
2022/03/04 13:49:56;;;;;;;12.57;9.02;;;;;;;;;;5067431;28;20048;-64
2022/03/04 13:52:22;;;;;;;13.45;9.48;;;;;;;;;;5066867;28;20049;-64
2022/03/04 13:54:55;;;;;;;12.43;9.02;;;;;;;;;;5051960;28;20128;-64
2022/03/04 13:57:27;;;;;;;13.13;8.75;;;;;;;;;;5028598;28;20501;-64
2022/03/04 13:59:53;;;;;;;12.68;7.90;;;;;;;;;;5031380;28;20465;-64
2022/03/04 14:02:19;;;;;;;15.95;9.38;;;;;;;;;;5047464;28;20490;-64
2022/03/04 14:04:52;;;;;;;14.38;9.18;;;;;;;;;;5032230;28;20041;-64
2022/03/04 14:07:20;;;;;;;13.13;9.48;;;;;;;;;;5031210;28;20050;-64
2022/03/04 14:09:48;;;;;;;13.10;9.20;;;;;;;;;;5047332;28;20044;-64
2022/03/04 14:12:14;;;;;;;15.65;8.80;;;;;;;;;;5047429;28;20069;-64
2022/03/04 14:14:40;;;;;;;14.45;10.05;;;;;;;;;;5031229;28;20057;-64
2022/03/04 14:17:07;;;;;;;14.15;9.45;;;;;;;;;;5031984;28;20084;-64